createdAt,value
2018-04-13T00:03:41.473Z,37.93
2018-04-13T00:08:32.531Z,36.77
2018-04-13T00:13:23.628Z,36.90
2018-04-13T00:18:14.705Z,38.03
2018-04-13T00:23:06.465Z,36.07
2018-04-13T00:27:57.485Z,37.73
2018-04-13T00:32:48.545Z,37.27
2018-04-13T00:37:39.620Z,36.67
2018-04-13T00:42:31.396Z,36.40
2018-04-13T00:47:22.411Z,37.90
2018-04-13T00:52:13.431Z,36.13
2018-04-13T00:57:04.563Z,35.77
2018-04-13T01:01:55.632Z,35.80
2018-04-13T01:06:47.411Z,36.90
2018-04-13T01:11:38.451Z,36.77
2018-04-13T01:16:29.504Z,37.00
2018-04-13T01:21:20.535Z,36.33
2018-04-13T01:26:12.308Z,36.07
2018-04-13T01:31:03.311Z,36.97
2018-04-13T01:35:55.088Z,35.53
2018-04-13T01:40:46.155Z,34.00
2018-04-13T01:45:37.176Z,35.43
2018-04-13T01:50:28.939Z,34.03
2018-04-13T01:55:20.806Z,34.90
2018-04-13T02:00:11.838Z,35.47
2018-04-13T02:05:02.865Z,36.20
2018-04-13T02:09:53.939Z,35.27
2018-04-13T02:14:45.008Z,34.27
2018-04-13T02:19:36.017Z,34.83
2018-04-13T02:24:27.033Z,34.73
2018-04-13T02:29:18.789Z,34.13
2018-04-13T02:34:09.908Z,35.17
2018-04-13T02:39:00.939Z,34.13
2018-04-13T02:43:51.952Z,34.80
2018-04-13T02:48:43.718Z,36.00
2018-04-13T02:53:34.839Z,34.30
2018-04-13T02:58:25.926Z,34.33
2018-04-13T03:03:17.684Z,35.27
2018-04-13T03:08:08.696Z,34.23
2018-04-13T03:13:00.501Z,34.97
2018-04-13T03:17:51.813Z,35.67
2018-04-13T03:22:42.841Z,35.50
2018-04-13T03:27:33.867Z,36.27
2018-04-13T03:32:24.888Z,35.87
2018-04-13T03:37:15.929Z,37.00
2018-04-13T03:42:08.487Z,36.27
2018-04-13T03:46:59.543Z,35.90
2018-04-13T03:51:51.321Z,34.87
2018-04-13T03:56:42.405Z,36.57
2018-04-13T04:01:34.157Z,35.70
2018-04-13T04:06:25.167Z,35.70
2018-04-13T04:11:17.098Z,35.17
2018-04-13T04:16:08.872Z,34.23
2018-04-13T04:26:54.480Z,34.20
2018-04-13T04:31:46.252Z,35.03
2018-04-13T04:36:37.349Z,36.40
2018-04-13T04:41:29.137Z,35.27
2018-04-13T04:46:20.198Z,36.73
2018-04-13T04:51:11.232Z,35.07
2018-04-13T04:56:02.399Z,35.57
2018-04-13T05:00:53.489Z,34.30
2018-04-13T05:05:45.297Z,34.37
2018-04-13T05:10:36.316Z,34.17
2018-04-13T05:15:27.512Z,32.40
2018-04-13T05:20:18.733Z,32.17
2018-04-13T05:25:09.802Z,32.50
2018-04-13T05:30:00.821Z,33.37
2018-04-13T05:34:51.896Z,31.87
2018-04-13T05:39:42.979Z,31.77
2018-04-13T05:44:34.738Z,31.77
2018-04-13T05:49:26.596Z,32.43
2018-04-13T05:54:18.360Z,31.47
2018-04-13T05:59:09.416Z,30.20
2018-04-13T06:04:00.433Z,28.10
2018-04-13T06:08:51.476Z,28.13
2018-04-13T06:13:42.560Z,27.87
2018-04-13T06:18:33.595Z,27.33
2018-04-13T06:23:24.641Z,26.47
2018-04-13T06:28:15.668Z,25.53
2018-04-13T06:33:07.485Z,25.27
2018-04-13T06:37:58.532Z,24.40
2018-04-13T06:42:49.585Z,24.90
2018-04-13T06:47:41.388Z,25.33
2018-04-13T06:52:32.782Z,25.83
2018-04-13T06:57:23.799Z,24.17
2018-04-13T07:02:14.899Z,24.10
2018-04-13T07:07:06.741Z,25.17
2018-04-13T07:11:58.636Z,25.80
2018-04-13T07:16:49.671Z,25.70
2018-04-13T07:21:40.811Z,25.67
2018-04-13T07:26:31.899Z,26.23
2018-04-13T07:31:24.004Z,27.03
2018-04-13T07:36:15.753Z,27.23
2018-04-13T07:41:07.573Z,27.40
2018-04-13T07:45:59.392Z,31.97
2018-04-13T07:50:50.415Z,28.40
2018-04-13T07:55:41.438Z,29.73
2018-04-13T08:00:32.467Z,32.73
2018-04-13T08:05:23.525Z,33.13
2018-04-13T08:10:15.661Z,33.57
2018-04-13T08:15:06.359Z,37.17
2018-04-13T08:19:57.558Z,36.00
2018-04-13T08:24:49.413Z,37.83
2018-04-13T08:29:40.485Z,36.17
2018-04-13T08:34:31.513Z,35.27
2018-04-13T08:39:23.347Z,37.27
2018-04-13T08:44:14.368Z,38.67
2018-04-13T08:49:05.569Z,38.07
2018-04-13T08:53:56.480Z,35.23
2018-04-13T08:58:47.658Z,36.10
2018-04-13T09:03:38.708Z,36.83
2018-04-13T09:08:29.774Z,34.57
2018-04-13T09:13:21.545Z,34.03
2018-04-13T09:18:12.661Z,34.60
2018-04-13T09:23:04.423Z,33.47
2018-04-13T09:27:55.453Z,33.07
2018-04-13T09:32:46.571Z,30.17
2018-04-13T09:37:37.721Z,30.20
2018-04-13T09:42:28.778Z,28.03
2018-04-13T09:47:20.592Z,30.37
2018-04-13T09:52:11.629Z,29.40
2018-04-13T09:57:02.675Z,33.03
2018-04-13T10:01:54.420Z,34.60
2018-04-13T10:06:45.597Z,33.13
2018-04-13T10:11:36.615Z,34.60
2018-04-13T10:16:27.860Z,33.70
2018-04-13T10:21:18.921Z,35.03
2018-04-13T10:26:09.964Z,34.90
2018-04-13T10:31:00.960Z,34.30
2018-04-13T10:35:51.960Z,37.37
2018-04-13T10:40:43.002Z,35.77
2018-04-13T10:45:34.851Z,35.23
2018-04-13T10:50:25.870Z,36.93
2018-04-13T10:55:17.734Z,34.83
2018-04-13T11:00:08.864Z,35.83
2018-04-13T11:04:59.880Z,36.37
2018-04-13T11:09:50.895Z,33.47
2018-04-13T11:14:41.918Z,34.20
2018-04-13T11:19:33.862Z,32.70
2018-04-13T11:24:24.877Z,27.57
2018-04-13T11:29:15.977Z,29.00
2018-04-13T11:34:07.816Z,27.70
2018-04-13T11:38:59.729Z,25.37
2018-04-13T11:43:50.816Z,23.97
2018-04-13T11:48:41.852Z,23.40
2018-04-13T11:53:32.904Z,22.17
2018-04-13T11:58:23.960Z,21.90
2018-04-13T12:03:15.816Z,19.10
2018-04-13T12:08:06.845Z,18.50
2018-04-13T12:12:57.887Z,17.40
2018-04-13T12:17:48.973Z,16.87
2018-04-13T12:22:40.743Z,14.13
2018-04-13T12:27:31.735Z,13.27
2018-04-13T12:32:23.539Z,13.27
2018-04-13T12:37:14.568Z,11.97
2018-04-13T12:42:05.771Z,11.10
2018-04-13T12:46:57.003Z,9.73
2018-04-13T12:51:48.012Z,10.63
2018-04-13T12:56:39.134Z,9.47
2018-04-13T13:01:30.264Z,9.53
2018-04-13T13:06:21.293Z,8.03
2018-04-13T13:11:12.316Z,8.33
2018-04-13T13:16:03.320Z,8.30
2018-04-13T13:20:54.433Z,7.20
2018-04-13T13:25:45.436Z,7.07
2018-04-13T13:30:37.259Z,6.83
2018-04-13T13:35:28.313Z,7.00
2018-04-13T13:40:20.048Z,6.67
2018-04-13T13:45:11.860Z,6.63
2018-04-13T13:50:02.978Z,6.73
2018-04-13T13:54:54.206Z,6.03
2018-04-13T13:59:45.939Z,5.50
2018-04-13T14:04:36.952Z,5.90
2018-04-13T14:09:28.033Z,5.77
2018-04-13T14:14:19.056Z,5.63
2018-04-13T14:19:10.083Z,5.67
2018-04-13T14:24:01.101Z,5.87
2018-04-13T14:28:52.141Z,4.90
2018-04-13T14:33:43.230Z,5.60
2018-04-13T14:38:35.053Z,4.37
2018-04-13T14:43:26.057Z,4.80
2018-04-13T14:48:17.152Z,5.50
2018-04-13T14:53:08.218Z,4.83
2018-04-13T14:57:59.295Z,5.10
2018-04-13T15:02:50.300Z,4.80
2018-04-13T15:07:42.063Z,4.80
2018-04-13T15:12:33.108Z,4.90
2018-04-13T15:17:24.161Z,4.83
2018-04-13T15:22:15.192Z,5.00
2018-04-13T15:27:06.947Z,4.83
2018-04-13T15:31:58.856Z,5.10
2018-04-13T15:36:50.049Z,5.87
2018-04-13T15:41:41.101Z,5.13
2018-04-13T15:46:32.178Z,5.10
2018-04-13T15:51:23.311Z,5.30
2018-04-13T15:56:14.340Z,5.23
2018-04-13T16:01:05.438Z,4.90
2018-04-13T16:05:57.224Z,5.20
2018-04-13T16:10:48.248Z,5.20
2018-04-13T16:15:39.297Z,3.70
2018-04-13T16:20:30.300Z,3.47
2018-04-13T16:25:21.410Z,4.13
2018-04-13T16:30:12.453Z,3.93
2018-04-13T16:35:03.488Z,4.20
2018-04-13T16:39:54.558Z,3.83
2018-04-13T16:44:45.602Z,4.20
2018-04-13T16:49:36.630Z,4.23
2018-04-13T16:54:27.715Z,4.20
2018-04-13T16:59:19.517Z,3.17
2018-04-13T17:04:11.314Z,3.73
2018-04-13T17:09:02.388Z,3.27
2018-04-13T17:13:54.213Z,3.40
2018-04-13T17:18:45.268Z,3.10
2018-04-13T17:23:37.018Z,4.53
2018-04-13T17:28:28.765Z,4.30
2018-04-13T17:33:20.519Z,4.53
2018-04-13T17:38:11.549Z,4.90
2018-04-13T17:43:02.684Z,5.10
2018-04-13T17:47:53.688Z,5.33
2018-04-13T17:52:44.761Z,6.07
2018-04-13T17:57:35.763Z,5.93
2018-04-13T18:02:26.795Z,6.00
2018-04-13T18:07:17.940Z,6.70
2018-04-13T18:12:09.025Z,6.90
2018-04-13T18:17:00.048Z,8.23
2018-04-13T18:21:51.086Z,7.73
2018-04-13T18:26:42.161Z,8.77
2018-04-13T18:31:33.117Z,9.87
2018-04-13T18:36:24.125Z,7.50
2018-04-13T18:41:15.139Z,8.30
2018-04-13T18:46:06.165Z,7.77
2018-04-13T18:50:57.264Z,7.57
2018-04-13T18:55:48.255Z,9.00
2018-04-13T19:00:39.268Z,9.50
2018-04-13T19:05:30.309Z,8.13
2018-04-13T19:10:22.926Z,8.60
2018-04-13T19:15:13.937Z,10.20
2018-04-13T19:20:05.001Z,10.30
2018-04-13T19:24:56.023Z,9.53
2018-04-13T19:29:47.042Z,9.80
2018-04-13T19:34:38.152Z,10.27
2018-04-13T19:39:29.207Z,13.03
2018-04-13T19:44:20.248Z,12.47
2018-04-13T19:49:11.997Z,13.67
2018-04-13T19:54:03.743Z,12.50
2018-04-13T19:58:55.579Z,12.73
2018-04-13T20:03:47.399Z,12.80
2018-04-13T20:08:38.437Z,13.17
2018-04-13T20:13:30.256Z,13.27
2018-04-13T20:18:21.255Z,14.07
2018-04-13T20:23:12.310Z,14.50
2018-04-13T20:28:03.395Z,13.77
2018-04-13T20:32:54.422Z,14.80
2018-04-13T20:37:45.632Z,15.00
2018-04-13T20:42:36.705Z,15.57
2018-04-13T20:47:29.213Z,15.53
2018-04-13T20:52:20.740Z,14.27
2018-04-13T20:57:12.513Z,14.70
2018-04-13T21:02:03.528Z,15.87
2018-04-13T21:06:54.545Z,15.00
2018-04-13T21:11:45.575Z,14.93
2018-04-13T21:16:36.616Z,15.53
2018-04-13T21:21:27.644Z,16.03
2018-04-13T21:26:18.644Z,16.53
2018-04-13T21:31:09.677Z,16.70
2018-04-13T21:36:00.744Z,16.13
2018-04-13T21:40:52.531Z,16.27
2018-04-13T21:45:43.532Z,15.43
2018-04-13T21:50:34.562Z,14.90
2018-04-13T21:55:25.579Z,13.93
2018-04-13T22:00:16.577Z,14.33
2018-04-13T22:05:08.333Z,14.30
2018-04-13T22:10:00.133Z,12.73
2018-04-13T22:14:54.040Z,10.30
2018-04-13T22:19:45.799Z,8.63
2018-04-13T22:24:37.544Z,9.67
2018-04-13T22:29:28.566Z,9.47
2018-04-13T22:34:20.337Z,9.47
2018-04-13T22:39:11.367Z,8.20
2018-04-13T22:44:02.468Z,8.37
2018-04-13T22:48:53.496Z,7.23
2018-04-13T22:53:44.506Z,5.90
2018-04-13T22:58:36.329Z,5.57
2018-04-13T23:03:28.113Z,4.70
2018-04-13T23:08:19.143Z,4.93
2018-04-13T23:13:10.185Z,6.30
2018-04-13T23:18:01.237Z,7.80
2018-04-13T23:22:53.024Z,6.70
2018-04-13T23:27:44.053Z,7.70
2018-04-13T23:32:35.064Z,8.00
2018-04-13T23:37:26.176Z,7.73
2018-04-13T23:42:17.240Z,8.37
2018-04-13T23:47:08.246Z,9.17
2018-04-13T23:51:59.255Z,8.73
2018-04-13T23:56:50.279Z,9.00
